Time,TemperatureF,DewpointF,PressureIn,WindDirection,WindDirectionDegrees,WindSpeedMPH,WindSpeedGustMPH,Humidity,HourlyPrecipIn,Conditions,Clouds,dailyrainin,SoftwareType,DateUTC
2013-02-08 00:10:00,32.4,29.5,29.79,NE,56,4.0,4.0,89,0.05,,,0.00,Wunderground v.1.12,2013-02-08 05:10:00,
2013-02-08 00:20:00,32.5,29.6,29.77,NE,51,3.0,3.0,89,0.00,,,0.00,Wunderground v.1.12,2013-02-08 05:20:00,
2013-02-08 00:30:00,32.5,29.6,29.76,NE,45,3.0,13.0,89,0.04,,,0.01,Wunderground v.1.12,2013-02-08 05:30:00,
2013-02-08 00:40:00,32.5,29.6,29.76,NE,55,3.0,4.0,89,0.00,,,0.00,Wunderground v.1.12,2013-02-08 05:40:00,
2013-02-08 00:50:00,32.5,29.9,29.75,NE,44,3.0,3.0,90,0.00,,,0.01,Wunderground v.1.12,2013-02-08 05:50:00,
2013-02-08 01:00:00,32.5,29.9,29.74,ENE,68,2.0,10.0,90,0.02,,,0.02,Wunderground v.1.12,2013-02-08 06:00:00,
2013-02-08 01:10:00,32.4,29.8,29.74,SE,127,3.0,3.0,90,0.00,,,0.02,Wunderground v.1.12,2013-02-08 06:10:00,
2013-02-08 01:20:00,32.4,29.8,29.73,ENE,68,2.0,10.0,90,0.02,,,0.02,Wunderground v.1.12,2013-02-08 06:20:00,
2013-02-08 01:30:00,32.4,29.8,29.73,NE,45,1.0,8.0,90,0.02,,,0.02,Wunderground v.1.12,2013-02-08 06:30:00,
2013-02-08 01:40:00,32.4,29.8,29.73,ENE,64,2.0,2.0,90,0.00,,,0.03,Wunderground v.1.12,2013-02-08 06:40:00,
2013-02-08 01:50:00,32.4,29.8,29.73,NE,42,1.0,4.0,90,0.10,,,0.04,Wunderground v.1.12,2013-02-08 06:50:00,
2013-02-08 02:00:00,32.4,29.8,29.72,NE,45,2.0,11.0,90,0.02,,,0.05,Wunderground v.1.12,2013-02-08 07:00:00,
2013-02-08 02:10:00,32.4,29.8,29.72,NE,51,2.0,2.0,90,0.00,,,0.04,Wunderground v.1.12,2013-02-08 07:10:00,
2013-02-08 02:20:00,32.4,30.1,29.72,ENE,58,2.0,2.0,91,0.12,,,0.06,Wunderground v.1.12,2013-02-08 07:20:00,
2013-02-08 02:30:00,32.4,30.1,29.72,NE,45,1.0,8.0,91,0.06,,,0.08,Wunderground v.1.12,2013-02-08 07:30:00,
2013-02-08 02:40:00,32.4,30.1,29.72,ESE,109,1.0,1.0,91,0.05,,,0.08,Wunderground v.1.12,2013-02-08 07:40:00,
2013-02-08 02:50:00,32.5,30.2,29.71,NE,55,1.0,1.0,91,0.45,,,0.10,Wunderground v.1.12,2013-02-08 07:50:00,
2013-02-08 03:00:00,32.5,30.2,29.71,ENE,68,1.0,7.0,91,0.06,,,0.10,Wunderground v.1.12,2013-02-08 08:00:00,
2013-02-08 03:10:00,32.5,30.2,29.71,NNE,14,0.0,0.0,91,0.00,,,0.10,Wunderground v.1.12,2013-02-08 08:10:00,
2013-02-08 03:20:00,32.5,30.2,29.71,ENE,65,0.0,0.0,91,0.00,,,0.10,Wunderground v.1.12,2013-02-08 08:20:00,
2013-02-08 03:30:00,32.5,30.2,29.70,N/A,-737280,0.0,0.0,91,0.04,,,0.12,Wunderground v.1.12,2013-02-08 08:30:00,
2013-02-08 03:40:00,32.7,30.4,29.70,NE,38,0.0,0.0,91,0.05,,,0.12,Wunderground v.1.12,2013-02-08 08:40:00,
2013-02-08 03:50:00,32.7,30.4,29.70,North,3,0.0,0.0,91,0.00,,,0.12,Wunderground v.1.12,2013-02-08 08:50:00,
2013-02-08 04:00:00,32.7,30.6,29.70,N/A,-737280,0.0,0.0,92,0.02,,,0.12,Wunderground v.1.12,2013-02-08 09:00:00,
2013-02-08 04:10:00,32.7,30.6,29.70,North,354,0.0,0.0,92,0.00,,,0.12,Wunderground v.1.12,2013-02-08 09:10:00,
2013-02-08 04:20:00,32.7,30.6,29.70,North,354,0.0,0.0,92,0.00,,,0.12,Wunderground v.1.12,2013-02-08 09:20:00,
2013-02-08 04:30:00,32.7,30.6,29.70,N/A,-737280,0.0,0.0,92,0.00,,,0.12,Wunderground v.1.12,2013-02-08 09:30:00,
2013-02-08 04:40:00,32.7,30.6,29.70,North,352,0.0,0.0,92,0.00,,,0.12,Wunderground v.1.12,2013-02-08 09:40:00,
2013-02-08 04:50:00,32.7,30.6,29.71,N/A,-737280,0.0,0.0,92,0.00,,,0.12,Wunderground v.1.12,2013-02-08 09:50:00,
2013-02-08 05:00:00,32.5,30.4,29.72,N/A,-737280,0.0,0.0,92,0.00,,,0.12,Wunderground v.1.12,2013-02-08 10:00:00,
2013-02-08 05:10:00,32.5,30.4,29.72,NNW,337,0.0,0.0,92,0.00,,,0.12,Wunderground v.1.12,2013-02-08 10:10:00,
2013-02-08 05:20:00,32.4,30.3,29.73,NW,320,0.0,0.0,92,0.00,,,0.12,Wunderground v.1.12,2013-02-08 10:20:00,
2013-02-08 05:40:00,32.2,30.1,29.73,N/A,-737280,0.0,0.0,92,0.00,,,0.12,Wunderground v.1.12,2013-02-08 10:40:00,
2013-02-08 05:50:00,31.9,29.8,29.74,North,0,0.0,0.0,92,0.00,,,0.12,Wunderground v.1.12,2013-02-08 10:50:00,
2013-02-08 06:00:00,31.6,29.5,29.75,N/A,-737280,0.0,0.0,92,0.00,,,0.12,Wunderground v.1.12,2013-02-08 11:00:00,
2013-02-08 06:10:00,31.2,28.9,29.75,North,0,0.0,0.0,91,0.00,,,0.12,Wunderground v.1.12,2013-02-08 11:10:00,
2013-02-08 06:20:00,30.9,28.6,29.75,NW,326,0.0,0.0,91,0.00,,,0.12,Wunderground v.1.12,2013-02-08 11:20:00,
2013-02-08 06:30:00,30.7,28.4,29.76,N/A,-737280,0.0,0.0,91,0.00,,,0.12,Wunderground v.1.12,2013-02-08 11:30:00,
2013-02-08 06:40:00,30.6,28.3,29.77,North,349,0.0,0.0,91,0.00,,,0.12,Wunderground v.1.12,2013-02-08 11:40:00,
2013-02-08 06:50:00,30.4,28.1,29.78,NW,305,0.0,0.0,91,0.00,,,0.12,Wunderground v.1.12,2013-02-08 11:50:00,
2013-02-08 07:00:00,30.4,28.1,29.79,N/A,-737280,0.0,0.0,91,0.00,,,0.12,Wunderground v.1.12,2013-02-08 12:00:00,
2013-02-08 07:10:00,30.3,28.0,29.79,North,356,0.0,0.0,91,0.00,,,0.12,Wunderground v.1.12,2013-02-08 12:10:00,
2013-02-08 07:20:00,30.3,28.0,29.80,North,354,0.0,0.0,91,0.00,,,0.12,Wunderground v.1.12,2013-02-08 12:20:00,
2013-02-08 07:30:00,30.1,27.8,29.81,N/A,-737280,0.0,0.0,91,0.00,,,0.12,Wunderground v.1.12,2013-02-08 12:30:00,
2013-02-08 07:40:00,29.8,27.5,29.81,NNW,336,0.0,0.0,91,0.00,,,0.12,Wunderground v.1.12,2013-02-08 12:40:00,
2013-02-08 07:50:00,29.8,27.5,29.82,North,352,0.0,0.0,91,0.00,,,0.12,Wunderground v.1.12,2013-02-08 12:50:00,
2013-02-08 08:00:00,29.7,27.4,29.83,N/A,-737280,0.0,0.0,91,0.00,,,0.12,Wunderground v.1.12,2013-02-08 13:00:00,
2013-02-08 08:10:00,29.7,27.4,29.83,NNW,344,0.0,0.0,91,0.00,,,0.12,Wunderground v.1.12,2013-02-08 13:10:00,
2013-02-08 08:20:00,29.7,27.4,29.83,NW,315,0.0,0.0,91,0.00,,,0.12,Wunderground v.1.12,2013-02-08 13:20:00,
2013-02-08 08:30:00,29.7,27.4,29.84,N/A,-737280,0.0,0.0,91,0.00,,,0.12,Wunderground v.1.12,2013-02-08 13:30:00,
2013-02-08 08:40:00,29.7,27.4,29.84,NNW,335,0.0,0.0,91,0.00,,,0.12,Wunderground v.1.12,2013-02-08 13:40:00,
2013-02-08 08:50:00,29.7,27.4,29.86,N/A,-737280,0.0,0.0,91,0.00,,,0.12,Wunderground v.1.12,2013-02-08 13:50:00,
2013-02-08 09:10:00,29.8,27.5,29.87,N/A,-737280,0.0,0.0,91,0.00,,,0.12,Wunderground v.1.12,2013-02-08 14:10:00,
2013-02-08 09:20:00,29.7,27.1,29.88,NNW,346,0.0,0.0,90,0.00,,,0.12,Wunderground v.1.12,2013-02-08 14:20:00,
2013-02-08 09:40:00,29.5,26.9,29.89,North,0,0.0,0.0,90,0.00,,,0.12,Wunderground v.1.12,2013-02-08 14:40:00,
2013-02-08 09:50:00,29.4,26.6,29.89,North,3,0.0,9.0,89,0.00,,,0.12,Wunderground v.1.12,2013-02-08 14:50:00,
2013-02-08 10:00:00,29.4,26.6,29.91,NNW,338,5.0,16.0,89,0.00,,,0.12,Wunderground v.1.12,2013-02-08 15:00:00,
2013-02-08 10:10:00,29.4,26.0,29.91,North,0,7.0,7.0,87,0.00,,,0.12,Wunderground v.1.12,2013-02-08 15:10:00,
2013-02-08 10:20:00,29.4,25.7,29.92,North,353,8.0,10.0,86,0.00,,,0.12,Wunderground v.1.12,2013-02-08 15:20:00,
2013-02-08 10:30:00,29.5,25.5,29.94,North,0,6.0,17.0,85,0.00,,,0.12,Wunderground v.1.12,2013-02-08 15:30:00,
2013-02-08 10:40:00,29.5,25.3,29.94,NNW,329,6.0,6.0,84,0.00,,,0.12,Wunderground v.1.12,2013-02-08 15:40:00,
2013-02-08 10:50:00,29.7,24.9,29.95,North,0,8.0,9.0,82,0.00,,,0.12,Wunderground v.1.12,2013-02-08 15:50:00,
2013-02-08 11:00:00,30.0,25.2,29.97,North,0,6.0,16.0,82,0.00,,,0.12,Wunderground v.1.12,2013-02-08 16:00:00,
2013-02-08 11:10:00,29.5,24.4,29.97,NNW,332,7.0,7.0,81,0.00,,,0.12,Wunderground v.1.12,2013-02-08 16:10:00,
2013-02-08 11:20:00,29.1,24.0,29.98,North,359,9.0,9.0,81,0.00,,,0.12,Wunderground v.1.12,2013-02-08 16:20:00,
2013-02-08 11:30:00,29.3,23.9,29.99,North,0,8.0,18.0,80,0.00,,,0.12,Wunderground v.1.12,2013-02-08 16:30:00,
2013-02-08 11:40:00,29.5,24.1,29.99,North,0,7.0,7.0,80,0.00,,,0.12,Wunderground v.1.12,2013-02-08 16:40:00,
2013-02-08 11:50:00,29.4,23.4,30.00,North,353,7.0,10.0,78,0.00,,,0.12,Wunderground v.1.12,2013-02-08 16:50:00,
2013-02-08 12:10:00,29.4,23.4,30.01,NNW,338,9.0,19.0,78,0.00,,,0.12,Wunderground v.1.12,2013-02-08 17:10:00,
2013-02-08 12:20:00,29.1,22.5,30.02,North,6,7.0,11.0,76,0.00,,,0.12,Wunderground v.1.12,2013-02-08 17:20:00,
2013-02-08 12:40:00,28.5,21.9,30.02,NNW,330,9.0,9.0,76,0.00,,,0.12,Wunderground v.1.12,2013-02-08 17:40:00,
2013-02-08 12:50:00,28.4,21.8,30.03,North,0,8.0,8.0,76,0.00,,,0.13,Wunderground v.1.12,2013-02-08 17:50:00,
2013-02-08 13:00:00,28.1,21.5,30.04,North,0,8.0,22.0,76,0.01,,,0.13,Wunderground v.1.12,2013-02-08 18:00:00,
2013-02-08 13:10:00,28.2,21.6,30.04,NNW,344,7.0,8.0,76,0.00,,,0.13,Wunderground v.1.12,2013-02-08 18:10:00,
2013-02-08 13:20:00,28.1,21.5,30.04,NNW,338,8.0,20.0,76,0.01,,,0.13,Wunderground v.1.12,2013-02-08 18:20:00,
2013-02-08 13:40:00,27.8,20.9,30.05,North,0,9.0,21.0,75,0.01,,,0.13,Wunderground v.1.12,2013-02-08 18:40:00,
2013-02-08 13:50:00,27.8,20.9,30.06,North,1,7.0,7.0,75,0.00,,,0.13,Wunderground v.1.12,2013-02-08 18:50:00,
2013-02-08 14:10:00,27.8,20.6,30.07,NW,306,8.0,8.0,74,0.00,,,0.14,Wunderground v.1.12,2013-02-08 19:10:00,
2013-02-08 14:20:00,27.6,20.4,30.08,NNW,346,8.0,14.0,74,0.00,,,0.14,Wunderground v.1.12,2013-02-08 19:20:00,
2013-02-08 14:30:00,27.5,20.0,30.08,North,0,9.0,21.0,73,0.01,,,0.14,Wunderground v.1.12,2013-02-08 19:30:00,
2013-02-08 14:40:00,27.3,20.1,30.08,WNW,294,10.0,10.0,74,0.00,,,0.14,Wunderground v.1.12,2013-02-08 19:40:00,
2013-02-08 14:50:00,27.6,20.4,30.08,NNW,328,7.0,7.0,74,0.00,,,0.14,Wunderground v.1.12,2013-02-08 19:50:00,
2013-02-08 15:00:00,27.6,20.1,30.09,NNW,338,7.0,20.0,73,0.00,,,0.14,Wunderground v.1.12,2013-02-08 20:00:00,
2013-02-08 15:10:00,27.6,19.8,30.09,NW,312,9.0,9.0,72,0.00,,,0.14,Wunderground v.1.12,2013-02-08 20:10:00,
2013-02-08 15:20:00,27.6,19.8,30.09,North,350,8.0,18.0,72,0.00,,,0.14,Wunderground v.1.12,2013-02-08 20:20:00,
2013-02-08 15:30:00,27.6,19.8,30.10,North,0,8.0,19.0,72,0.00,,,0.14,Wunderground v.1.12,2013-02-08 20:30:00,
2013-02-08 15:40:00,27.6,20.1,30.10,North,0,9.0,17.0,73,0.00,,,0.14,Wunderground v.1.12,2013-02-08 20:40:00,
2013-02-08 15:50:00,28.1,20.2,30.11,North,350,8.0,8.0,72,0.00,,,0.14,Wunderground v.1.12,2013-02-08 20:50:00,
2013-02-08 16:00:00,28.1,19.9,30.11,NNW,338,7.0,17.0,71,0.00,,,0.14,Wunderground v.1.12,2013-02-08 21:00:00,
2013-02-08 16:10:00,27.9,19.7,30.11,NNW,328,8.0,8.0,71,0.00,,,0.14,Wunderground v.1.12,2013-02-08 21:10:00,
2013-02-08 16:20:00,27.9,19.7,30.13,NW,308,6.0,6.0,71,0.00,,,0.14,Wunderground v.1.12,2013-02-08 21:20:00,
2013-02-08 16:30:00,28.1,19.9,30.14,North,0,6.0,16.0,71,0.00,,,0.14,Wunderground v.1.12,2013-02-08 21:30:00,
2013-02-08 16:40:00,28.1,19.9,30.14,NNE,17,6.0,6.0,71,0.00,,,0.14,Wunderground v.1.12,2013-02-08 21:40:00,
2013-02-08 16:50:00,27.9,19.7,30.15,NNW,347,8.0,8.0,71,0.00,,,0.14,Wunderground v.1.12,2013-02-08 21:50:00,
2013-02-08 17:00:00,27.9,19.7,30.15,North,0,7.0,21.0,71,0.00,,,0.14,Wunderground v.1.12,2013-02-08 22:00:00,
2013-02-08 17:10:00,27.9,19.7,30.15,NNW,330,7.0,7.0,71,0.00,,,0.14,Wunderground v.1.12,2013-02-08 22:10:00,
2013-02-08 17:20:00,27.9,19.7,30.16,North,0,6.0,6.0,71,0.00,,,0.14,Wunderground v.1.12,2013-02-08 22:20:00,
2013-02-08 17:40:00,28.1,19.9,30.17,North,0,5.0,13.0,71,0.00,,,0.14,Wunderground v.1.12,2013-02-08 22:40:00,
2013-02-08 17:50:00,27.9,19.7,30.18,North,0,4.0,10.0,71,0.00,,,0.14,Wunderground v.1.12,2013-02-08 22:50:00,
2013-02-08 18:00:00,27.6,18.8,30.18,North,0,5.0,14.0,69,0.00,,,0.14,Wunderground v.1.12,2013-02-08 23:00:00,
2013-02-08 18:10:00,27.3,18.8,30.18,North,11,4.0,6.0,70,0.00,,,0.14,Wunderground v.1.12,2013-02-08 23:10:00,
2013-02-08 18:20:00,27.0,18.5,30.19,North,352,3.0,4.0,70,0.00,,,0.14,Wunderground v.1.12,2013-02-08 23:20:00,
2013-02-08 18:30:00,26.7,18.6,30.20,North,0,2.0,8.0,71,0.00,,,0.14,Wunderground v.1.12,2013-02-08 23:30:00,
2013-02-08 18:40:00,26.4,18.6,30.20,North,349,0.0,0.0,72,0.00,,,0.14,Wunderground v.1.12,2013-02-08 23:40:00,
2013-02-08 18:50:00,26.1,18.3,30.21,North,349,0.0,0.0,72,0.00,,,0.14,Wunderground v.1.12,2013-02-08 23:50:00,
2013-02-08 19:10:00,25.8,18.3,30.21,N/A,-737280,0.0,0.0,73,0.00,,,0.14,Wunderground v.1.12,2013-02-09 00:10:00,
2013-02-08 19:20:00,25.1,18.0,30.22,North,349,0.0,0.0,74,0.00,,,0.14,Wunderground v.1.12,2013-02-09 00:20:00,
2013-02-08 19:30:00,24.7,17.6,30.23,North,0,0.0,6.0,74,0.00,,,0.14,Wunderground v.1.12,2013-02-09 00:30:00,
2013-02-08 19:40:00,24.7,17.6,30.23,NNW,342,1.0,2.0,74,0.00,,,0.14,Wunderground v.1.12,2013-02-09 00:40:00,
2013-02-08 19:50:00,24.4,17.3,30.24,NNW,342,0.0,0.0,74,0.00,,,0.14,Wunderground v.1.12,2013-02-09 00:50:00,
2013-02-08 20:00:00,24.2,17.1,30.24,N/A,-737280,0.0,0.0,74,0.00,,,0.14,Wunderground v.1.12,2013-02-09 01:00:00,
2013-02-08 20:10:00,23.9,16.8,30.24,NNW,343,0.0,0.0,74,0.00,,,0.14,Wunderground v.1.12,2013-02-09 01:10:00,
2013-02-08 20:20:00,23.8,16.7,30.25,N/A,-737280,0.0,0.0,74,0.00,,,0.14,Wunderground v.1.12,2013-02-09 01:20:00,
2013-02-08 20:30:00,23.3,16.5,30.26,N/A,-737280,0.0,0.0,75,0.00,,,0.14,Wunderground v.1.12,2013-02-09 01:30:00,
2013-02-08 20:40:00,22.9,16.5,30.26,NNW,343,0.0,0.0,76,0.00,,,0.14,Wunderground v.1.12,2013-02-09 01:40:00,
2013-02-08 20:50:00,22.9,16.8,30.26,N/A,-737280,0.0,0.0,77,0.00,,,0.14,Wunderground v.1.12,2013-02-09 01:50:00,
2013-02-08 21:00:00,22.4,16.6,30.26,North,0,0.0,5.0,78,0.00,,,0.14,Wunderground v.1.12,2013-02-09 02:00:00,
2013-02-08 21:10:00,22.7,16.6,30.26,NNW,347,3.0,3.0,77,0.00,,,0.14,Wunderground v.1.12,2013-02-09 02:10:00,
2013-02-08 21:20:00,22.9,16.5,30.27,North,352,2.0,5.0,76,0.00,,,0.14,Wunderground v.1.12,2013-02-09 02:20:00,
2013-02-08 21:30:00,23.0,16.6,30.28,North,0,1.0,6.0,76,0.00,,,0.14,Wunderground v.1.12,2013-02-09 02:30:00,
2013-02-08 21:40:00,22.9,16.2,30.28,NNW,343,0.0,0.0,75,0.00,,,0.14,Wunderground v.1.12,2013-02-09 02:40:00,
2013-02-08 21:50:00,22.7,16.0,30.29,NNW,338,0.0,3.0,75,0.00,,,0.14,Wunderground v.1.12,2013-02-09 02:50:00,
2013-02-08 22:00:00,22.2,15.5,30.29,N/A,-737280,0.0,0.0,75,0.00,,,0.14,Wunderground v.1.12,2013-02-09 03:00:00,
2013-02-08 22:10:00,21.8,15.4,30.29,NNW,343,0.0,0.0,76,0.00,,,0.14,Wunderground v.1.12,2013-02-09 03:10:00,
2013-02-08 22:20:00,21.4,15.3,30.29,NNW,343,0.0,0.0,77,0.00,,,0.14,Wunderground v.1.12,2013-02-09 03:20:00,
2013-02-08 22:30:00,21.1,15.0,30.29,N/A,-737280,0.0,0.0,77,0.00,,,0.14,Wunderground v.1.12,2013-02-09 03:30:00,
2013-02-08 22:40:00,20.8,15.0,30.29,NNW,343,0.0,0.0,78,0.00,,,0.14,Wunderground v.1.12,2013-02-09 03:40:00,
2013-02-08 22:50:00,20.6,14.8,30.30,NNW,343,0.0,1.0,78,0.00,,,0.14,Wunderground v.1.12,2013-02-09 03:50:00,
2013-02-08 23:00:00,20.5,14.7,30.30,NNW,338,0.0,3.0,78,0.00,,,0.14,Wunderground v.1.12,2013-02-09 04:00:00,
2013-02-08 23:10:00,20.5,15.0,30.30,NNW,344,0.0,0.0,79,0.00,,,0.14,Wunderground v.1.12,2013-02-09 04:10:00,
2013-02-08 23:20:00,20.5,15.0,30.31,NNW,344,0.0,0.0,79,0.00,,,0.14,Wunderground v.1.12,2013-02-09 04:20:00,
2013-02-08 23:40:00,20.2,14.4,30.31,NNW,344,0.0,0.0,78,0.00,,,0.14,Wunderground v.1.12,2013-02-09 04:40:00,